Time;durP1;ratioP1;P1;durP2;ratioP2;P2;SDS_P1;SDS_P2;PMS_P1;PMS_P2;Temp;Humidity;BMP_temperature;BMP_pressure;BME280_temperature;BME280_humidity;BME280_pressure;Samples;Min_cycle;Max_cycle;Signal;HPM_P1;HPM_P2
2021/08/20 00:01:40;;;;;;;9.93;3.92;;;537.70;1740.80;;;;;;5090433;28;20024;-79
2021/08/20 00:04:07;;;;;;;7.18;3.33;;;537.70;1740.80;;;;;;5093960;28;20017;-78
2021/08/20 00:06:33;;;;;;;8.63;3.78;;;537.80;1740.80;;;;;;5079538;28;20024;-78
2021/08/20 00:08:59;;;;;;;9.32;3.90;;;537.70;1740.80;;;;;;5070419;28;20027;-78
2021/08/20 00:11:25;;;;;;;9.57;4.05;;;537.80;1740.80;;;;;;5073316;28;20500;-78
2021/08/20 00:13:51;;;;;;;9.93;4.07;;;537.70;1740.80;;;;;;5072879;28;20017;-79
2021/08/20 00:16:17;;;;;;;5.53;3.33;;;537.70;1740.80;;;;;;5073085;28;20025;-78
2021/08/20 00:18:43;;;;;;;12.07;3.83;;;537.60;1766.40;;;;;;5082616;28;20430;-79
2021/08/20 00:21:09;;;;;;;6.47;3.25;;;537.70;1766.40;;;;;;5074708;28;20024;-79
2021/08/20 00:23:35;;;;;;;11.57;4.57;;;537.70;1766.40;;;;;;5072893;28;20067;-78
2021/08/20 00:26:01;;;;;;;7.00;3.90;;;537.70;1766.40;;;;;;5073186;28;20024;-79
2021/08/20 00:28:27;;;;;;;13.32;3.80;;;537.60;1792.00;;;;;;5073103;28;20023;-78
2021/08/20 00:30:52;;;;;;;6.22;2.90;;;537.60;1817.60;;;;;;5072780;28;20035;-76
2021/08/20 00:33:18;;;;;;;6.93;3.38;;;537.60;1817.60;;;;;;5073137;28;20099;-79
2021/08/20 00:35:44;;;;;;;8.65;3.70;;;537.70;1817.60;;;;;;5073303;28;20027;-77
2021/08/20 00:38:10;;;;;;;5.35;3.47;;;537.70;1817.60;;;;;;5072999;28;20020;-78
2021/08/20 00:40:37;;;;;;;13.13;3.50;;;537.70;1817.60;;;;;;5072466;28;20099;-79
2021/08/20 00:43:04;;;;;;;8.98;3.67;;;537.70;1817.60;;;;;;5073005;28;20473;-76
2021/08/20 00:45:29;;;;;;;8.10;3.47;;;537.60;1817.60;;;;;;5072620;28;20490;-78
2021/08/20 00:47:55;;;;;;;7.32;3.95;;;537.60;1792.00;;;;;;5072672;28;20036;-77
2021/08/20 00:50:21;;;;;;;7.30;3.63;;;537.70;1792.00;;;;;;5071439;28;20032;-74
2021/08/20 00:52:47;;;;;;;10.05;3.60;;;537.70;1792.00;;;;;;5076589;28;20607;-75
2021/08/20 00:55:15;;;;;;;11.68;3.65;;;537.70;1792.00;;;;;;5072453;28;20040;-78
2021/08/20 00:57:42;;;;;;;8.90;3.70;;;537.70;1792.00;;;;;;5069913;28;20101;-78
2021/08/20 01:00:09;;;;;;;10.40;3.40;;;537.70;1766.40;;;;;;5071551;28;20043;-78
2021/08/20 01:02:34;;;;;;;8.43;4.13;;;537.70;1766.40;;;;;;5072617;28;20380;-78
2021/08/20 01:05:01;;;;;;;9.45;3.63;;;537.70;1766.40;;;;;;5072379;28;20116;-78
2021/08/20 01:07:28;;;;;;;8.10;4.03;;;537.70;1766.40;;;;;;5072499;28;20074;-78
2021/08/20 01:09:53;;;;;;;11.20;3.58;;;512.90;1766.40;;;;;;5072557;28;20020;-79
2021/08/20 01:12:19;;;;;;;11.18;4.10;;;512.90;1766.40;;;;;;5072600;28;20070;-78
2021/08/20 01:14:49;;;;;;;9.30;3.63;;;537.60;1792.00;;;;;;5072665;28;20923;-78
2021/08/20 01:17:15;;;;;;;12.43;3.85;;;512.90;1792.00;;;;;;5072890;28;20023;-78
2021/08/20 01:19:41;;;;;;;13.20;3.80;;;512.90;1792.00;;;;;;5072364;28;20392;-78
2021/08/20 01:22:08;;;;;;;7.63;3.25;;;512.90;1792.00;;;;;;5072538;28;20092;-78
2021/08/20 01:24:34;;;;;;;6.13;3.75;;;512.90;1766.40;;;;;;5072572;28;20039;-78
2021/08/20 01:27:00;;;;;;;14.00;4.20;;;512.60;1792.00;;;;;;5074795;28;20045;-79
2021/08/20 01:29:26;;;;;;;10.50;4.10;;;512.90;1792.00;;;;;;5082987;28;20503;-77
2021/08/20 01:31:52;;;;;;;16.52;4.68;;;512.90;1792.00;;;;;;5080343;28;20029;-77
2021/08/20 01:34:18;;;;;;;8.90;4.25;;;512.80;1792.00;;;;;;5076147;28;20099;-77
2021/08/20 01:36:44;;;;;;;11.18;4.32;;;512.70;1766.40;;;;;;5076011;28;20028;-78
2021/08/20 01:39:10;;;;;;;8.45;3.97;;;512.70;1766.40;;;;;;5076016;28;20020;-78
2021/08/20 01:41:36;;;;;;;8.25;4.50;;;512.70;1766.40;;;;;;5078097;28;20488;-79
2021/08/20 01:44:02;;;;;;;7.22;4.28;;;512.70;1792.00;;;;;;5086721;28;20028;-79
2021/08/20 01:46:30;;;;;;;10.00;3.80;;;512.80;1766.40;;;;;;5075925;28;20028;-79
2021/08/20 01:48:58;;;;;;;9.32;4.82;;;512.70;1766.40;;;;;;5074476;28;20025;-78
2021/08/20 01:51:25;;;;;;;7.53;3.60;;;512.70;1766.40;;;;;;5071903;28;20799;-78
2021/08/20 01:53:56;;;;;;;5.57;3.97;;;512.70;1766.40;;;;;;5074270;28;20044;-74
2021/08/20 01:56:23;;;;;;;10.32;4.55;;;512.80;1766.40;;;;;;5075773;28;20016;-75
2021/08/20 01:58:50;;;;;;;9.45;4.07;;;512.40;1792.00;;;;;;5075656;28;20028;-77
2021/08/20 02:01:15;;;;;;;7.25;4.38;;;512.40;1792.00;;;;;;5075542;28;20542;-78
2021/08/20 02:03:41;;;;;;;9.20;4.43;;;512.50;1792.00;;;;;;5075364;28;20025;-77
2021/08/20 02:06:08;;;;;;;9.30;4.13;;;512.70;1792.00;;;;;;5073058;28;20028;-79
2021/08/20 02:08:34;;;;;;;7.28;4.20;;;512.50;1766.40;;;;;;5074457;28;20070;-78
2021/08/20 02:11:00;;;;;;;15.32;4.47;;;512.50;1766.40;;;;;;5075433;28;20017;-78
2021/08/20 02:13:26;;;;;;;10.57;4.50;;;512.70;1766.40;;;;;;5075429;28;20021;-79
2021/08/20 02:15:52;;;;;;;15.65;5.63;;;512.40;1792.00;;;;;;5075542;28;20013;-79
2021/08/20 02:18:18;;;;;;;12.20;4.70;;;487.20;1817.60;;;;;;5075339;28;20066;-78
2021/08/20 02:20:44;;;;;;;10.73;4.70;;;512.00;1817.60;;;;;;5074391;28;20025;-79
2021/08/20 02:23:10;;;;;;;12.10;4.75;;;487.30;1817.60;;;;;;5075486;28;20031;-80
2021/08/20 02:25:36;;;;;;;11.63;4.57;;;487.30;1817.60;;;;;;5079185;28;20535;-79
2021/08/20 02:28:02;;;;;;;8.85;4.32;;;487.20;1817.60;;;;;;5084923;28;20098;-81
2021/08/20 02:30:28;;;;;;;11.43;4.75;;;487.20;1817.60;;;;;;5075162;28;20016;-81
2021/08/20 02:32:54;;;;;;;10.45;4.38;;;512.00;1817.60;;;;;;5075006;28;20066;-78
2021/08/20 02:35:21;;;;;;;11.65;5.13;;;487.30;1817.60;;;;;;5074999;28;20581;-81
2021/08/20 02:37:47;;;;;;;12.20;4.63;;;487.20;1817.60;;;;;;5074792;28;20393;-78
2021/08/20 02:40:13;;;;;;;7.93;4.28;;;487.10;1843.20;;;;;;5075155;28;20020;-78
2021/08/20 02:42:38;;;;;;;11.85;4.25;;;487.00;1868.80;;;;;;5074918;28;20084;-78
2021/08/20 02:45:05;;;;;;;7.03;3.95;;;487.00;1868.80;;;;;;5074812;28;20029;-79
2021/08/20 02:47:30;;;;;;;10.80;4.40;;;487.00;1868.80;;;;;;5075188;28;20100;-80
2021/08/20 02:49:56;;;;;;;14.15;4.78;;;487.00;1868.80;;;;;;5074712;28;20104;-77
2021/08/20 02:52:22;;;;;;;10.35;4.47;;;487.00;1868.80;;;;;;5074593;28;20017;-78
2021/08/20 02:54:48;;;;;;;9.50;4.25;;;487.00;1868.80;;;;;;5074398;28;20059;-77
2021/08/20 02:57:13;;;;;;;12.65;5.28;;;486.90;1868.80;;;;;;5079361;28;20019;-78
2021/08/20 02:59:39;;;;;;;11.20;5.57;;;487.00;1868.80;;;;;;5078262;28;20024;-78
2021/08/20 03:02:05;;;;;;;11.48;4.97;;;486.90;1868.80;;;;;;5074552;28;20017;-78
2021/08/20 03:04:31;;;;;;;12.63;6.03;;;486.90;1894.40;;;;;;5074394;28;20063;-78
2021/08/20 03:06:56;;;;;;;10.73;5.60;;;486.90;1868.80;;;;;;5074442;28;20018;-74
2021/08/20 03:09:22;;;;;;;16.17;6.10;;;486.90;1868.80;;;;;;5074193;28;20085;-78
2021/08/20 03:11:48;;;;;;;14.88;8.20;;;486.90;1894.40;;;;;;5074080;28;20024;-75
2021/08/20 03:14:15;;;;;;;15.25;6.82;;;486.90;1868.80;;;;;;5074268;28;20023;-77
2021/08/20 03:16:42;;;;;;;11.43;6.78;;;486.80;1894.40;;;;;;5074377;28;20019;-78
2021/08/20 03:19:09;;;;;;;11.85;7.30;;;486.80;1868.80;;;;;;5071553;28;20028;-78
2021/08/20 03:21:34;;;;;;;16.95;7.90;;;486.90;1868.80;;;;;;5074205;28;20029;-77
2021/08/20 03:24:00;;;;;;;14.65;7.65;;;486.90;1868.80;;;;;;5074274;28;20385;-77
2021/08/20 03:26:26;;;;;;;12.02;8.73;;;486.80;1868.80;;;;;;5073327;28;20024;-76
2021/08/20 03:28:52;;;;;;;16.20;9.60;;;486.90;1868.80;;;;;;5071734;28;20047;-78
2021/08/20 03:31:20;;;;;;;13.02;10.05;;;486.80;1868.80;;;;;;5073793;28;20027;-78
2021/08/20 03:33:46;;;;;;;19.63;11.52;;;486.70;1894.40;;;;;;5073236;28;20024;-77
2021/08/20 03:36:12;;;;;;;17.95;9.32;;;486.60;1894.40;;;;;;5073773;28;20096;-78
2021/08/20 03:38:38;;;;;;;16.02;9.63;;;486.60;1894.40;;;;;;5073722;28;20099;-78
2021/08/20 03:41:03;;;;;;;14.45;9.75;;;486.50;1894.40;;;;;;5072570;28;20029;-77
2021/08/20 03:43:29;;;;;;;13.43;10.18;;;461.70;1945.60;;;;;;5078814;28;20069;-77
2021/08/20 03:45:55;;;;;;;19.60;10.02;;;461.70;1945.60;;;;;;5080946;28;20028;-79
2021/08/20 03:48:21;;;;;;;13.68;8.98;;;461.60;1945.60;;;;;;5073110;28;20013;-78
2021/08/20 03:50:46;;;;;;;19.52;8.60;;;461.70;1945.60;;;;;;5073319;28;20048;-77
2021/08/20 03:53:12;;;;;;;13.25;8.23;;;486.40;1920.00;;;;;;5073334;28;20028;-78
2021/08/20 03:55:38;;;;;;;13.90;7.60;;;486.40;1920.00;;;;;;5073147;28;20098;-78
2021/08/20 03:58:03;;;;;;;13.45;7.57;;;486.50;1920.00;;;;;;5073168;28;20074;-77
2021/08/20 04:00:29;;;;;;;14.63;8.32;;;486.50;1894.40;;;;;;5073239;28;20433;-78
2021/08/20 04:02:55;;;;;;;17.63;8.52;;;486.40;1920.00;;;;;;5073300;28;20048;-81
2021/08/20 04:05:22;;;;;;;12.38;8.40;;;461.70;1920.00;;;;;;5073075;28;20028;-75
2021/08/20 04:07:48;;;;;;;16.33;8.32;;;461.70;1945.60;;;;;;5073030;28;20051;-77
2021/08/20 04:10:14;;;;;;;16.02;7.72;;;461.70;1945.60;;;;;;5072905;28;20055;-75
2021/08/20 04:12:40;;;;;;;19.25;8.05;;;486.40;1945.60;;;;;;5073090;28;20099;-76
2021/08/20 04:15:06;;;;;;;15.75;7.45;;;486.40;1945.60;;;;;;5072875;28;20031;-77
2021/08/20 04:17:31;;;;;;;18.08;8.55;;;486.40;1945.60;;;;;;5072851;28;20016;-77
2021/08/20 04:19:57;;;;;;;18.20;7.75;;;486.50;1945.60;;;;;;5072782;28;20025;-74
2021/08/20 04:22:23;;;;;;;16.98;7.90;;;486.40;1945.60;;;;;;5072797;28;20044;-74
2021/08/20 04:24:48;;;;;;;14.77;8.00;;;486.40;1945.60;;;;;;5072864;28;20040;-78
2021/08/20 04:27:14;;;;;;;20.33;8.25;;;461.70;1945.60;;;;;;5076795;28;20024;-74
2021/08/20 04:29:40;;;;;;;18.25;7.32;;;461.70;1945.60;;;;;;5081373;28;20016;-76
2021/08/20 04:32:06;;;;;;;14.52;7.65;;;461.70;1971.20;;;;;;5072706;28;20017;-75
2021/08/20 04:34:32;;;;;;;15.55;7.68;;;461.70;1971.20;;;;;;5072651;28;20359;-75
2021/08/20 04:36:57;;;;;;;16.98;7.35;;;486.50;1945.60;;;;;;5071276;28;20028;-75
2021/08/20 04:39:23;;;;;;;15.35;8.13;;;486.60;1920.00;;;;;;5072580;28;20044;-74
2021/08/20 04:41:49;;;;;;;19.63;8.80;;;486.60;1894.40;;;;;;5071168;28;20017;-77
2021/08/20 04:44:15;;;;;;;23.70;8.70;;;486.70;1894.40;;;;;;5072615;28;20021;-77
2021/08/20 04:46:40;;;;;;;17.13;7.57;;;486.80;1894.40;;;;;;5072709;28;20099;-74
2021/08/20 04:49:06;;;;;;;16.65;8.10;;;486.80;1894.40;;;;;;5072550;28;20025;-76
2021/08/20 04:51:34;;;;;;;18.13;7.85;;;487.00;1868.80;;;;;;5072635;28;20519;-74
2021/08/20 04:54:00;;;;;;;12.82;7.05;;;487.00;1868.80;;;;;;5069285;28;20752;-75
2021/08/20 04:56:26;;;;;;;16.23;6.75;;;486.90;1894.40;;;;;;5071398;28;20161;-77
2021/08/20 04:58:52;;;;;;;25.30;7.75;;;487.00;1868.80;;;;;;5071381;28;20470;-77
2021/08/20 05:01:18;;;;;;;17.17;7.85;;;487.00;1868.80;;;;;;5074488;28;20096;-75
2021/08/20 05:03:44;;;;;;;11.95;6.20;;;487.10;1843.20;;;;;;5075281;28;20032;-74
2021/08/20 05:06:12;;;;;;;12.55;6.85;;;487.20;1817.60;;;;;;5075010;28;20036;-76
2021/08/20 05:08:38;;;;;;;13.00;6.40;;;487.30;1817.60;;;;;;5073958;28;20116;-77
2021/08/20 05:11:05;;;;;;;14.50;6.13;;;512.10;1792.00;;;;;;5074997;28;20016;-76
2021/08/20 05:13:31;;;;;;;14.27;6.47;;;512.10;1817.60;;;;;;5075092;28;20020;-75
2021/08/20 05:15:57;;;;;;;11.02;7.30;;;512.30;1792.00;;;;;;5075156;28;20020;-78
2021/08/20 05:18:23;;;;;;;13.35;6.85;;;512.40;1766.40;;;;;;5074969;28;20028;-77
2021/08/20 05:20:49;;;;;;;16.15;7.25;;;512.60;1740.80;;;;;;5075202;28;20017;-77
2021/08/20 05:23:15;;;;;;;18.08;6.78;;;512.60;1740.80;;;;;;5075755;28;20423;-76
2021/08/20 05:25:41;;;;;;;14.77;7.13;;;512.80;1740.80;;;;;;5076168;28;20027;-78
2021/08/20 05:28:09;;;;;;;11.95;5.70;;;512.80;1740.80;;;;;;5075882;28;20028;-76
2021/08/20 05:30:35;;;;;;;9.32;5.43;;;537.60;1740.80;;;;;;5074673;28;20029;-76
2021/08/20 05:33:02;;;;;;;12.05;5.90;;;537.80;1715.20;;;;;;5075981;28;20048;-77
2021/08/20 05:35:28;;;;;;;13.90;6.15;;;537.70;1715.20;;;;;;5074553;28;20063;-76
2021/08/20 05:37:54;;;;;;;13.60;5.50;;;537.80;1740.80;;;;;;5075980;28;20052;-75
2021/08/20 05:40:20;;;;;;;14.45;6.70;;;537.80;1715.20;;;;;;5074620;28;20036;-77
2021/08/20 05:42:46;;;;;;;16.80;6.65;;;538.00;1715.20;;;;;;5075640;28;20024;-75
2021/08/20 05:45:12;;;;;;;26.23;14.63;;;538.00;1715.20;;;;;;5084920;28;20389;-78
2021/08/20 05:47:38;;;;;;;13.10;6.88;;;538.10;1689.60;;;;;;5075483;28;20016;-75
2021/08/20 05:50:05;;;;;;;48.45;34.67;;;538.20;1689.60;;;;;;5075500;28;20021;-76
2021/08/20 05:52:34;;;;;;;53.63;33.30;;;538.40;1689.60;;;;;;5075536;28;20020;-75
2021/08/20 05:54:59;;;;;;;14.30;9.45;;;538.40;1689.60;;;;;;5075168;28;20497;-76
2021/08/20 05:57:25;;;;;;;11.70;5.88;;;538.50;1689.60;;;;;;5074614;28;20032;-76
2021/08/20 05:59:51;;;;;;;12.15;5.70;;;563.20;1715.20;;;;;;5075291;28;20028;-76
2021/08/20 06:02:17;;;;;;;13.25;6.25;;;563.30;1740.80;;;;;;5075217;28;20432;-75
2021/08/20 06:04:43;;;;;;;12.65;5.75;;;563.40;1766.40;;;;;;5074079;28;20033;-75
2021/08/20 06:07:08;;;;;;;11.10;6.65;;;563.40;1740.80;;;;;;5085078;28;20095;-76
2021/08/20 06:09:34;;;;;;;9.15;5.72;;;563.50;1689.60;;;;;;5079079;28;20056;-75
2021/08/20 06:12:01;;;;;;;9.73;5.13;;;563.60;1664.00;;;;;;5074559;28;20095;-75
2021/08/20 06:14:26;;;;;;;12.38;5.45;;;563.80;1638.40;;;;;;5074901;28;20080;-74
2021/08/20 06:16:55;;;;;;;8.60;5.07;;;563.80;1638.40;;;;;;5075198;28;20383;-74
2021/08/20 06:19:25;;;;;;;14.50;5.35;;;563.90;1638.40;;;;;;5072347;28;20494;-75
2021/08/20 06:21:51;;;;;;;10.23;5.10;;;563.90;1638.40;;;;;;5076764;28;20035;-74
2021/08/20 06:24:17;;;;;;;21.38;5.10;;;563.90;1638.40;;;;;;5076501;28;20120;-75
2021/08/20 06:26:45;;;;;;;20.70;4.97;;;564.10;1638.40;;;;;;5076479;28;20136;-74
2021/08/20 06:29:13;;;;;;;9.13;4.18;;;564.10;1638.40;;;;;;5075026;28;20078;-77
2021/08/20 06:31:38;;;;;;;12.00;5.07;;;564.10;1664.00;;;;;;5076743;28;20103;-74
2021/08/20 06:34:04;;;;;;;14.05;5.13;;;588.90;1638.40;;;;;;5076735;28;20104;-75
2021/08/20 06:36:30;;;;;;;10.00;4.75;;;589.00;1638.40;;;;;;5091157;28;20032;-74
2021/08/20 06:38:55;;;;;;;12.23;4.80;;;589.20;1612.80;;;;;;5095253;28;20027;-73
2021/08/20 06:41:21;;;;;;;9.30;4.18;;;589.30;1587.20;;;;;;5082531;28;20028;-75
2021/08/20 06:43:47;;;;;;;8.85;4.72;;;589.30;1587.20;;;;;;5077829;28;20444;-78
2021/08/20 06:46:12;;;;;;;10.55;4.50;;;589.40;1561.60;;;;;;5085650;28;20515;-74
2021/08/20 06:48:38;;;;;;;11.48;4.20;;;589.60;1561.60;;;;;;5095312;28;20427;-75
2021/08/20 06:51:04;;;;;;;8.52;4.03;;;589.60;1536.00;;;;;;5095185;28;20418;-79
2021/08/20 06:53:30;;;;;;;8.40;4.15;;;589.70;1536.00;;;;;;5092991;28;20032;-78
2021/08/20 06:55:56;;;;;;;8.60;4.90;;;614.40;1561.60;;;;;;5079751;28;20445;-75
2021/08/20 06:58:22;;;;;;;8.02;4.80;;;614.60;1536.00;;;;;;5094921;28;20044;-78
2021/08/20 07:00:48;;;;;;;6.95;3.58;;;614.60;1484.80;;;;;;5088474;28;20043;-79
2021/08/20 07:03:16;;;;;;;29.70;4.40;;;614.70;1510.40;;;;;;5073269;28;20032;-78
2021/08/20 07:05:42;;;;;;;9.82;4.10;;;614.50;1536.00;;;;;;5074678;28;20032;-75
2021/08/20 07:08:08;;;;;;;11.38;4.18;;;614.90;1510.40;;;;;;5074852;28;20017;-82
2021/08/20 07:10:33;;;;;;;7.78;3.90;;;615.00;1484.80;;;;;;5084671;28;20032;-75
2021/08/20 07:12:59;;;;;;;6.57;3.03;;;615.20;1459.20;;;;;;5094620;28;20590;-75
2021/08/20 07:15:25;;;;;;;7.95;3.67;;;615.30;1459.20;;;;;;5094775;28;20090;-78
2021/08/20 07:17:50;;;;;;;6.00;4.25;;;640.00;1459.20;;;;;;5079391;28;20023;-76
2021/08/20 07:20:16;;;;;;;5.93;3.40;;;640.10;1459.20;;;;;;5074103;28;20070;-76
2021/08/20 07:22:42;;;;;;;7.18;3.33;;;640.20;1433.60;;;;;;5073707;28;20489;-77
2021/08/20 07:25:08;;;;;;;6.78;3.33;;;640.40;1382.40;;;;;;5082227;28;20119;-77
2021/08/20 07:27:33;;;;;;;9.55;4.80;;;640.60;1356.80;;;;;;5087318;28;20053;-75
2021/08/20 07:29:59;;;;;;;5.68;3.60;;;640.60;1356.80;;;;;;5094442;28;20031;-76
2021/08/20 07:32:25;;;;;;;8.98;2.72;;;640.80;1331.20;;;;;;5078271;28;20039;-76
2021/08/20 07:34:51;;;;;;;6.55;3.47;;;640.90;1356.80;;;;;;5090064;28;20370;-77
2021/08/20 07:37:16;;;;;;;6.60;3.40;;;665.60;1331.20;;;;;;5087856;28;20024;-75
2021/08/20 07:39:42;;;;;;;9.82;2.42;;;665.60;1331.20;;;;;;5090436;28;20059;-75
2021/08/20 07:42:08;;;;;;;6.15;2.50;;;665.80;1331.20;;;;;;5086795;28;20510;-75
2021/08/20 07:44:34;;;;;;;4.75;2.90;;;665.70;1331.20;;;;;;5082379;28;20043;-76
2021/08/20 07:47:00;;;;;;;4.88;2.75;;;665.90;1331.20;;;;;;5073540;28;20029;-74
2021/08/20 07:49:29;;;;;;;4.70;2.53;;;666.10;1305.60;;;;;;5069258;28;20054;-75
2021/08/20 07:51:56;;;;;;;4.80;2.92;;;666.20;1305.60;;;;;;5073175;28;20051;-75
2021/08/20 07:54:23;;;;;;;12.32;6.47;;;666.20;1305.60;;;;;;5071752;28;20045;-77
2021/08/20 07:56:48;;;;;;;4.80;2.42;;;666.30;1280.00;;;;;;5073294;28;20028;-77
2021/08/20 07:59:14;;;;;;;7.50;3.17;;;666.40;1254.40;;;;;;5073130;28;20038;-77
2021/08/20 08:01:40;;;;;;;6.75;2.88;;;666.50;1254.40;;;;;;5073148;28;20024;-77
2021/08/20 08:04:05;;;;;;;4.63;2.67;;;666.40;1280.00;;;;;;5073164;28;20017;-77
2021/08/20 08:06:32;;;;;;;9.43;4.93;;;666.40;1280.00;;;;;;5081192;28;20020;-77
2021/08/20 08:08:58;;;;;;;4.57;2.95;;;691.20;1254.40;;;;;;5079217;28;20099;-76
2021/08/20 08:11:24;;;;;;;6.25;2.47;;;691.20;1280.00;;;;;;5074760;28;20111;-78
2021/08/20 08:13:49;;;;;;;5.15;2.42;;;691.20;1254.40;;;;;;5071705;28;20496;-74
2021/08/20 08:16:15;;;;;;;8.80;2.90;;;691.20;1228.80;;;;;;5072791;28;20023;-75
2021/08/20 08:18:41;;;;;;;7.93;3.97;;;691.30;1254.40;;;;;;5073246;28;20025;-77
2021/08/20 08:21:07;;;;;;;4.40;2.55;;;691.30;1254.40;;;;;;5073249;28;20107;-75
2021/08/20 08:23:32;;;;;;;7.00;2.35;;;691.20;1228.80;;;;;;5074924;28;20028;-76
2021/08/20 08:25:58;;;;;;;5.03;2.45;;;691.20;1280.00;;;;;;5074998;28;20032;-76
2021/08/20 08:28:24;;;;;;;14.90;10.38;;;691.30;1228.80;;;;;;5071329;28;20082;-78
2021/08/20 08:30:51;;;;;;;6.60;3.05;;;691.30;1254.40;;;;;;5071787;28;20035;-76
2021/08/20 08:33:18;;;;;;;3.92;2.30;;;691.40;1254.40;;;;;;5071696;28;20017;-75
2021/08/20 08:35:45;;;;;;;5.55;3.47;;;691.40;1254.40;;;;;;5071334;28;20025;-76
2021/08/20 08:38:13;;;;;;;7.78;2.75;;;691.40;1228.80;;;;;;5071268;28;20023;-75
2021/08/20 08:40:43;;;;;;;6.00;3.47;;;691.60;1203.20;;;;;;5071571;28;20025;-76
2021/08/20 08:43:09;;;;;;;5.82;2.38;;;691.60;1203.20;;;;;;5071634;28;20021;-77
2021/08/20 08:45:36;;;;;;;4.07;2.50;;;691.40;1203.20;;;;;;5071512;28;20036;-77
2021/08/20 08:48:04;;;;;;;5.07;2.47;;;691.40;1203.20;;;;;;5071577;28;20048;-75
2021/08/20 08:50:31;;;;;;;3.45;2.13;;;691.40;1228.80;;;;;;5071796;28;20024;-77
2021/08/20 08:52:58;;;;;;;5.03;2.38;;;691.60;1228.80;;;;;;5071929;28;20024;-77
2021/08/20 08:55:23;;;;;;;5.60;2.45;;;691.60;1228.80;;;;;;5072766;28;20638;-75
2021/08/20 08:57:50;;;;;;;6.22;2.80;;;691.60;1228.80;;;;;;5084664;28;20055;-77
2021/08/20 09:00:29;;;;;;;5.22;2.35;;;691.70;1203.20;;;;;;5071428;28;20020;-75
2021/08/20 09:02:55;;;;;;;6.55;4.60;;;691.80;1177.60;;;;;;5070402;28;20478;-75
2021/08/20 09:05:20;;;;;;;4.97;2.45;;;692.00;1203.20;;;;;;5071413;28;20042;-77
2021/08/20 09:07:51;;;;;;;8.00;2.55;;;692.10;1177.60;;;;;;5071441;28;20020;-78
2021/08/20 09:10:26;;;;;;;7.00;3.00;;;716.80;1203.20;;;;;;5071291;28;20347;-74
2021/08/20 09:12:59;;;;;;;6.37;3.10;;;716.80;1203.20;;;;;;5070130;28;20023;-77
2021/08/20 09:15:31;;;;;;;3.95;2.33;;;717.00;1203.20;;;;;;5068965;28;20020;-78
2021/08/20 09:18:03;;;;;;;4.72;2.58;;;692.10;1152.00;;;;;;5070997;28;20095;-75
2021/08/20 09:20:36;;;;;;;5.35;2.55;;;716.80;1203.20;;;;;;5071462;28;20078;-75
2021/08/20 09:23:20;;;;;;;3.70;2.38;;;716.80;1177.60;;;;;;5071784;28;20016;-77
2021/08/20 09:25:47;;;;;;;6.50;2.60;;;692.10;1152.00;;;;;;5071708;28;20106;-77
2021/08/20 09:28:14;;;;;;;5.32;2.55;;;692.00;1152.00;;;;;;5071061;28;20031;-76
2021/08/20 09:30:54;;;;;;;3.45;2.25;;;691.70;1152.00;;;;;;5069498;28;20044;-79
2021/08/20 09:33:21;;;;;;;4.22;2.60;;;691.70;1152.00;;;;;;5070896;28;20029;-78
2021/08/20 09:36:00;;;;;;;4.50;2.40;;;691.80;1152.00;;;;;;5071172;28;20401;-77
2021/08/20 09:38:27;;;;;;;7.07;2.40;;;716.80;1203.20;;;;;;5070411;28;20447;-77
2021/08/20 09:41:07;;;;;;;4.15;2.50;;;717.00;1177.60;;;;;;5070997;28;20071;-78
2021/08/20 09:43:34;;;;;;;9.30;2.38;;;717.10;1152.00;;;;;;5068745;28;20060;-78
2021/08/20 09:46:02;;;;;;;5.97;2.75;;;717.20;1152.00;;;;;;5071015;28;20055;-78
2021/08/20 09:48:42;;;;;;;3.78;2.50;;;717.00;1152.00;;;;;;5074091;28;20498;-77
2021/08/20 09:51:09;;;;;;;6.25;2.50;;;717.20;1152.00;;;;;;5073945;28;20115;-79
2021/08/20 09:53:35;;;;;;;8.35;2.60;;;717.30;1126.40;;;;;;5073938;28;20020;-79
2021/08/20 09:56:04;;;;;;;5.07;2.25;;;717.40;1126.40;;;;;;5072833;28;20038;-78
2021/08/20 09:58:33;;;;;;;6.00;2.38;;;717.20;1126.40;;;;;;5074325;28;20016;-77
2021/08/20 10:01:04;;;;;;;6.15;3.00;;;717.10;1152.00;;;;;;5075327;28;20024;-78
2021/08/20 10:03:36;;;;;;;20.65;3.70;;;716.90;1152.00;;;;;;5074154;28;20028;-79
2021/08/20 10:06:03;;;;;;;12.82;2.70;;;716.80;1152.00;;;;;;5070863;28;20086;-76
2021/08/20 10:08:30;;;;;;;3.78;2.50;;;716.80;1152.00;;;;;;5074260;28;20021;-76
2021/08/20 10:10:57;;;;;;;3.80;2.67;;;717.30;1126.40;;;;;;5074410;28;20048;-76
2021/08/20 10:13:26;;;;;;;3.03;2.05;;;717.50;1100.80;;;;;;5074237;28;20525;-78
2021/08/20 10:15:51;;;;;;;5.60;2.17;;;742.50;1100.80;;;;;;5074478;28;20439;-77
2021/08/20 10:18:17;;;;;;;4.70;2.10;;;742.80;1100.80;;;;;;5074315;28;20103;-78
2021/08/20 10:20:44;;;;;;;3.40;2.05;;;743.00;1075.20;;;;;;5073760;28;20039;-77
2021/08/20 10:23:15;;;;;;;3.70;2.25;;;742.80;1049.60;;;;;;5074131;28;20099;-75
2021/08/20 10:25:41;;;;;;;3.33;2.22;;;742.60;1100.80;;;;;;5073780;28;20032;-79
2021/08/20 10:28:12;;;;;;;4.57;2.40;;;742.60;1100.80;;;;;;5074076;28;20020;-77
2021/08/20 10:30:38;;;;;;;4.38;2.72;;;743.10;1100.80;;;;;;5073928;28;20355;-75
2021/08/20 10:33:06;;;;;;;6.35;2.90;;;768.10;1100.80;;;;;;5071297;28;20588;-75
2021/08/20 10:35:49;;;;;;;4.20;2.33;;;768.40;1075.20;;;;;;5073902;28;20021;-78
2021/08/20 10:38:44;;;;;;;4.22;2.42;;;768.60;1024.00;;;;;;5072650;28;20091;-76
2021/08/20 10:41:21;;;;;;;3.20;2.45;;;793.60;1049.60;;;;;;5071858;28;20087;-77
2021/08/20 10:44:02;;;;;;;3.92;2.55;;;793.70;998.40;;;;;;5071225;28;20032;-78
2021/08/20 10:46:34;;;;;;;3.08;2.22;;;793.70;998.40;;;;;;5071367;28;20025;-76
2021/08/20 10:49:12;;;;;;;3.95;2.13;;;793.70;1024.00;;;;;;5073519;28;20111;-76
2021/08/20 10:51:49;;;;;;;5.68;2.47;;;793.90;1024.00;;;;;;5073831;28;20020;-79
2021/08/20 10:54:26;;;;;;;5.78;2.40;;;768.70;998.40;;;;;;5074606;28;20050;-82
2021/08/20 10:56:52;;;;;;;4.18;2.20;;;768.60;998.40;;;;;;5074903;28;20020;-77
2021/08/20 10:59:36;;;;;;;3.22;2.25;;;768.60;998.40;;;;;;5079622;28;20059;-76
2021/08/20 11:02:20;;;;;;;3.33;2.35;;;793.70;998.40;;;;;;5073932;28;20024;-78
2021/08/20 11:05:03;;;;;;;3.90;2.03;;;794.20;998.40;;;;;;5071677;28;20496;-78
2021/08/20 11:07:37;;;;;;;3.67;2.13;;;794.00;1024.00;;;;;;5072036;28;20031;-78
2021/08/20 11:10:09;;;;;;;6.18;2.33;;;794.50;998.40;;;;;;5082222;28;20024;-79
2021/08/20 11:12:42;;;;;;;4.55;2.45;;;794.20;972.80;;;;;;5074247;28;20081;-77
2021/08/20 11:15:23;;;;;;;4.13;2.78;;;793.70;1024.00;;;;;;5074088;28;20020;-76
2021/08/20 11:17:55;;;;;;;3.20;2.25;;;768.90;972.80;;;;;;5074316;28;20541;-75
2021/08/20 11:20:22;;;;;;;5.60;2.45;;;768.60;998.40;;;;;;5073830;28;20017;-76
2021/08/20 11:25:52;;;;;;;4.50;2.70;;;768.90;972.80;;;;;;5088919;28;20028;-76
2021/08/20 11:28:25;;;;;;;4.38;2.50;;;793.70;972.80;;;;;;5088061;28;20025;-75
2021/08/20 11:31:09;;;;;;;3.22;2.10;;;793.90;947.20;;;;;;5070450;28;20129;-76
2021/08/20 11:33:46;;;;;;;3.20;2.10;;;793.70;998.40;;;;;;5085070;28;20348;-74
2021/08/20 11:36:14;;;;;;;3.70;2.42;;;793.70;998.40;;;;;;5074525;28;20028;-75
2021/08/20 11:38:45;;;;;;;6.07;2.53;;;793.80;947.20;;;;;;5074582;28;20021;-76
2021/08/20 11:41:24;;;;;;;7.65;2.35;;;794.20;947.20;;;;;;5073953;28;20032;-75
2021/08/20 11:43:59;;;;;;;4.05;2.55;;;819.20;947.20;;;;;;5074885;28;20024;-75
2021/08/20 11:46:30;;;;;;;4.03;2.50;;;819.40;947.20;;;;;;5074161;28;20025;-75
2021/08/20 11:48:58;;;;;;;4.97;3.10;;;819.60;921.60;;;;;;5075846;28;20028;-76
2021/08/20 11:51:34;;;;;;;6.38;2.63;;;819.80;947.20;;;;;;5073075;28;20056;-74
2021/08/20 11:54:05;;;;;;;3.67;2.40;;;820.10;921.60;;;;;;5071988;28;20102;-74
2021/08/20 11:56:32;;;;;;;2.60;1.85;;;819.70;896.00;;;;;;5071078;28;20469;-74
2021/08/20 11:59:07;;;;;;;5.30;1.85;;;819.60;947.20;;;;;;5073099;28;20033;-75
2021/08/20 12:01:34;;;;;;;3.03;1.95;;;819.40;947.20;;;;;;5076329;28;20496;-75
2021/08/20 12:04:00;;;;;;;3.38;2.17;;;819.60;921.60;;;;;;5071720;28;20032;-75
2021/08/20 12:06:28;;;;;;;3.08;2.05;;;819.60;921.60;;;;;;5072061;28;20107;-75
2021/08/20 12:08:57;;;;;;;3.85;2.30;;;819.60;921.60;;;;;;5071469;28;20029;-75
2021/08/20 12:11:30;;;;;;;4.93;2.20;;;819.40;947.20;;;;;;5071564;28;20031;-75
2021/08/20 12:13:56;;;;;;;4.53;1.95;;;794.50;921.60;;;;;;5070986;28;20012;-74
2021/08/20 12:16:41;;;;;;;3.45;2.17;;;794.50;947.20;;;;;;5072087;28;20111;-75
2021/08/20 12:19:30;;;;;;;4.30;2.17;;;793.70;947.20;;;;;;5070621;28;20062;-74